Map

Track Data

SID SEASON NUMBER BASIN SUBBASIN NAME ISO_TIME NATURE LAT LON WMO_WIND WMO_PRES WMO_AGENCY TRACK_TYPE DIST2LAND LANDFALL IFLAG USA_AGENCY USA_ATCF_ID USA_LAT USA_LON USA_RECORD USA_STATUS USA_WIND USA_PRES USA_SSHS USA_R34_NE USA_R34_SE USA_R34_SW USA_R34_NW USA_R50_NE USA_R50_SE USA_R50_SW USA_R50_NW USA_R64_NE USA_R64_SE USA_R64_SW USA_R64_NW USA_POCI USA_ROCI USA_RMW USA_EYE TOKYO_LAT TOKYO_LON TOKYO_GRADE TOKYO_WIND TOKYO_PRES TOKYO_R50_DIR TOKYO_R50_LONG TOKYO_R50_SHORT TOKYO_R30_DIR TOKYO_R30_LONG TOKYO_R30_SHORT TOKYO_LAND CMA_LAT CMA_LON CMA_CAT CMA_WIND CMA_PRES HKO_LAT HKO_LON HKO_CAT HKO_WIND HKO_PRES NEWDELHI_LAT NEWDELHI_LON NEWDELHI_GRADE NEWDELHI_WIND NEWDELHI_PRES NEWDELHI_CI NEWDELHI_DP NEWDELHI_POCI REUNION_LAT REUNION_LON REUNION_TYPE REUNION_WIND REUNION_PRES REUNION_TNUM REUNION_CI REUNION_RMW REUNION_R34_NE REUNION_R34_SE REUNION_R34_SW REUNION_R34_NW REUNION_R50_NE REUNION_R50_SE REUNION_R50_SW REUNION_R50_NW REUNION_R64_NE REUNION_R64_SE REUNION_R64_SW REUNION_R64_NW BOM_LAT BOM_LON BOM_TYPE BOM_WIND BOM_PRES BOM_TNUM BOM_CI BOM_RMW BOM_R34_NE BOM_R34_SE BOM_R34_SW BOM_R34_NW BOM_R50_NE BOM_R50_SE BOM_R50_SW BOM_R50_NW BOM_R64_NE BOM_R64_SE BOM_R64_SW BOM_R64_NW BOM_ROCI BOM_POCI BOM_EYE BOM_POS_METHOD BOM_PRES_METHOD NADI_LAT NADI_LON NADI_CAT NADI_WIND NADI_PRES WELLINGTON_LAT WELLINGTON_LON WELLINGTON_WIND WELLINGTON_PRES DS824_LAT DS824_LON DS824_STAGE DS824_WIND DS824_PRES TD9636_LAT TD9636_LON TD9636_STAGE TD9636_WIND TD9636_PRES TD9635_LAT TD9635_LON TD9635_WIND TD9635_PRES TD9635_ROCI NEUMANN_LAT NEUMANN_LON NEUMANN_CLASS NEUMANN_WIND NEUMANN_PRES MLC_LAT MLC_LON MLC_CLASS MLC_WIND MLC_PRES USA_GUST BOM_GUST BOM_GUST_PER REUNION_GUST REUNION_GUST_PER USA_SEAHGT USA_SEARAD_NE USA_SEARAD_SE USA_SEARAD_SW USA_SEARAD_NW STORM_SPEED STORM_DIR
1908043S14065 1908 10 SI MM NOT_NAMED 1908-02-12 00:00:00 TS -13.9000 65.3000 main 1064 1057 _________O____ -1 -13.9000 65.3000 TC 2 202
1908043S14065 1908 10 SI MM NOT_NAMED 1908-02-12 03:00:00 TS -14.0100 65.2575 main 1057 1041 _________P____ -1 -14.0100 65.2575 TC 2 207
1908043S14065 1908 10 SI MM NOT_NAMED 1908-02-12 06:00:00 TS -14.1000 65.2000 main 1041 1026 _________O____ -1 -14.1000 65.2000 TC 2 223
1908043S14065 1908 10 SI MM NOT_NAMED 1908-02-12 09:00:00 TS -14.1575 65.1150 main 1026 1018 _________P____ -1 -14.1575 65.1150 TC 2 243
1908043S14065 1908 10 SI MM NOT_NAMED 1908-02-12 12:00:00 TS -14.2000 65.0000 main 1018 1010 _________O____ -1 -14.2000 65.0000 TC 3 252
1908043S14065 1908 10 SI MM NOT_NAMED 1908-02-12 15:00:00 TS -14.2425 64.8500 main 1010 986 _________P____ -1 -14.2425 64.8500 TC 3 251
1908043S14065 1908 10 SI MM NOT_NAMED 1908-02-12 18:00:00 TS -14.3000 64.7000 main 986 971 _________O____ -1 -14.3000 64.7000 TC 3 239
1908043S14065 1908 10 SI MM NOT_NAMED 1908-02-12 21:00:00 TS -14.3925 64.5925 main 971 955 _________P____ -1 -14.3925 64.5925 TC 3 224
1908043S14065 1908 10 SI MM NOT_NAMED 1908-02-13 00:00:00 TS -14.5000 64.5000 main 955 940 _________O____ -1 -14.5000 64.5000 TC 3 222
1908043S14065 1908 10 SI MM NOT_NAMED 1908-02-13 03:00:00 TS -14.6000 64.4000 main 940 924 _________P____ -1 -14.6000 64.4000 TC 3 224
1908043S14065 1908 10 SI MM NOT_NAMED 1908-02-13 06:00:00 TS -14.7000 64.3000 main 924 909 _________O____ -1 -14.7000 64.3000 TC 3 224
1908043S14065 1908 10 SI MM NOT_NAMED 1908-02-13 09:00:00 TS -14.8000 64.2000 main 909 893 _________P____ -1 -14.8000 64.2000 TC 3 224
1908043S14065 1908 10 SI MM NOT_NAMED 1908-02-13 12:00:00 TS -14.9000 64.1000 main 893 878 _________O____ -1 -14.9000 64.1000 TC 3 223
1908043S14065 1908 10 SI MM NOT_NAMED 1908-02-13 15:00:00 TS -15.0000 64.0075 main 878 862 _________P____ -1 -15.0000 64.0075 TC 3 224
1908043S14065 1908 10 SI MM NOT_NAMED 1908-02-13 18:00:00 TS -15.1000 63.9000 main 862 847 _________O____ -1 -15.1000 63.9000 TC 3 231
1908043S14065 1908 10 SI MM NOT_NAMED 1908-02-13 21:00:00 TS -15.1774 63.7799 main 847 823 _________P____ -1 -15.1774 63.7799 TC 4 236
1908043S14065 1908 10 SI MM NOT_NAMED 1908-02-14 00:00:00 TS -15.3000 63.6000 main 823 785 _________O____ -1 -15.3000 63.6000 TC 6 232
1908043S14065 1908 10 SI MM NOT_NAMED 1908-02-14 03:00:00 TS -15.5276 63.3151 main 785 738 _________P____ -1 -15.5276 63.3151 TC 8 229
1908043S14065 1908 10 SI MM NOT_NAMED 1908-02-14 06:00:00 TS -15.8000 63.0000 main 738 707 _________O____ -1 -15.8000 63.0000 TC 8 226
1908043S14065 1908 10 SI MM NOT_NAMED 1908-02-14 09:00:00 TS -16.0574 62.7499 main 692 661 _________P____ -1 -16.0574 62.7499 TC 7 224
1908043S14065 1908 10 SI MM NOT_NAMED 1908-02-14 12:00:00 TS -16.3000 62.5000 main 661 622 _________O____ -1 -16.3000 62.5000 TC 7 230
1908043S14065 1908 10 SI MM NOT_NAMED 1908-02-14 15:00:00 TS -16.5000 62.1999 main 622 583 _________P____ -1 -16.5000 62.1999 TC 7 235
1908043S14065 1908 10 SI MM NOT_NAMED 1908-02-14 18:00:00 TS -16.7000 61.9000 main 583 537 _________O____ -1 -16.7000 61.9000 TC 7 230
1908043S14065 1908 10 SI MM NOT_NAMED 1908-02-14 21:00:00 TS -16.9650 61.6201 main 537 507 _________P____ -1 -16.9650 61.6201 TC 7 224
1908043S14065 1908 10 SI MM NOT_NAMED 1908-02-15 00:00:00 TS -17.2000 61.4000 main 507 491 _________O____ -1 -17.2000 61.4000 TC 5 223
1908043S14065 1908 10 SI MM NOT_NAMED 1908-02-15 03:00:00 TS -17.3149 61.2774 main 491 476 _________P____ -1 -17.3149 61.2774 TC 3 224
1908043S14065 1908 10 SI MM NOT_NAMED 1908-02-15 06:00:00 TS -17.4000 61.2000 main 476 461 _________O____ -1 -17.4000 61.2000 TC 3 216
1908043S14065 1908 10 SI MM NOT_NAMED 1908-02-15 09:00:00 TS -17.5425 61.1000 main 461 438 _________P____ -1 -17.5425 61.1000 TC 4 212
1908043S14065 1908 10 SI MM NOT_NAMED 1908-02-15 12:00:00 TS -17.7000 61.0000 main 438 423 _________O____ -1 -17.7000 61.0000 TC 4 210
1908043S14065 1908 10 SI MM NOT_NAMED 1908-02-15 15:00:00 TS -17.8575 60.9075 main 416 401 _________P____ -1 -17.8575 60.9075 TC 4 212
1908043S14065 1908 10 SI MM NOT_NAMED 1908-02-15 18:00:00 TS -18.0000 60.8000 main 401 386 _________O____ -1 -18.0000 60.8000 TC 3 224
1908043S14065 1908 10 SI MM NOT_NAMED 1908-02-15 21:00:00 TS -18.1075 60.6575 main 386 362 _________P____ -1 -18.1075 60.6575 TC 3 235
1908043S14065 1908 10 SI MM NOT_NAMED 1908-02-16 00:00:00 TS -18.2000 60.5000 main 362 347 _________O____ -1 -18.2000 60.5000 TC 4 237
1908043S14065 1908 10 SI MM NOT_NAMED 1908-02-16 03:00:00 TS -18.3000 60.3500 main 339 324 _________P____ -1 -18.3000 60.3500 TC 3 235
1908043S14065 1908 10 SI MM NOT_NAMED 1908-02-16 06:00:00 TS -18.4000 60.2000 main 324 308 _________O____ -1 -18.4000 60.2000 TC 3 236
1908043S14065 1908 10 SI MM NOT_NAMED 1908-02-16 09:00:00 TS -18.4925 60.0500 main 300 285 _________P____ -1 -18.4925 60.0500 TC 3 235
1908043S14065 1908 10 SI MM NOT_NAMED 1908-02-16 12:00:00 TS -18.6000 59.9000 main 285 270 _________O____ -1 -18.6000 59.9000 TC 4 230
1908043S14065 1908 10 SI MM NOT_NAMED 1908-02-16 15:00:00 TS -18.7350 59.7500 main 261 240 _________P____ -1 -18.7350 59.7500 TC 4 223
1908043S14065 1908 10 SI MM NOT_NAMED 1908-02-16 18:00:00 TS -18.9000 59.6000 main 240 219 _________O____ -1 -18.9000 59.6000 TC 5 218
1908043S14065 1908 10 SI MM NOT_NAMED 1908-02-16 21:00:00 TS -19.0925 59.4500 main 210 189 _________P____ -1 -19.0925 59.4500 TC 5 215
1908043S14065 1908 10 SI MM NOT_NAMED 1908-02-17 00:00:00 TS -19.3000 59.3000 main 189 170 _________O____ -1 -19.3000 59.3000 TC 5 214
1908043S14065 1908 10 SI MM NOT_NAMED 1908-02-17 03:00:00 TS -19.5075 59.1575 main 170 142 _________P____ -1 -19.5075 59.1575 TC 5 215
1908043S14065 1908 10 SI MM NOT_NAMED 1908-02-17 06:00:00 TS -19.7000 59.0000 main 142 118 _________O____ -1 -19.7000 59.0000 TC 5 224
1908043S14065 1908 10 SI MM NOT_NAMED 1908-02-17 09:00:00 TS -19.8575 58.8000 main 113 89 _________P____ -1 -19.8575 58.8000 TC 5 231
1908043S14065 1908 10 SI MM NOT_NAMED 1908-02-17 12:00:00 TS -20.0000 58.6000 main 89 76 _________O____ -1 -20.0000 58.6000 TC 4 228
1908043S14065 1908 10 SI MM NOT_NAMED 1908-02-17 15:00:00 TS -20.1574 58.4500 main 63 52 _________P____ -1 -20.1574 58.4500 TC 4 223
1908043S14065 1908 10 SI MM NOT_NAMED 1908-02-17 18:00:00 TS -20.3000 58.3000 main 52 33 _________O____ -1 -20.3000 58.3000 TC 4 233
1908043S14065 1908 10 SI MM NOT_NAMED 1908-02-17 21:00:00 TS -20.3925 58.1149 main 33 20 _________P____ -1 -20.3925 58.1149 TC 4 242
1908043S14065 1908 10 SI MM NOT_NAMED 1908-02-18 00:00:00 TS -20.5000 57.9000 main 20 10 _________O____ -1 -20.5000 57.9000 TC 5 236
1908043S14065 1908 10 SI MM NOT_NAMED 1908-02-18 03:00:00 TS -20.6850 57.6501 main 22 22 _________P____ -1 -20.6850 57.6501 TC 6 229
1908043S14065 1908 10 SI MM NOT_NAMED 1908-02-18 06:00:00 TS -20.9000 57.4000 main 44 44 _________O____ -1 -20.9000 57.4000 TC 6 226
1908043S14065 1908 10 SI MM NOT_NAMED 1908-02-18 09:00:00 TS -21.1075 57.1850 main 67 67 _________P____ -1 -21.1075 57.1850 TC 5 223
1908043S14065 1908 10 SI MM NOT_NAMED 1908-02-18 12:00:00 TS -21.3000 57.0000 main 94 94 _________O____ -1 -21.3000 57.0000 TC 5 222
1908043S14065 1908 10 SI MM NOT_NAMED 1908-02-18 15:00:00 TS -21.4575 56.8424 main 105 98 _________P____ -1 -21.4575 56.8424 TC 4 223
1908043S14065 1908 10 SI MM NOT_NAMED 1908-02-18 18:00:00 TS -21.6000 56.7000 main 98 94 _________O____ -1 -21.6000 56.7000 TC 4 222
1908043S14065 1908 10 SI MM NOT_NAMED 1908-02-18 21:00:00 TS -21.7575 56.5500 main 99 91 _________P____ -1 -21.7575 56.5500 TC 4 223
1908043S14065 1908 10 SI MM NOT_NAMED 1908-02-19 00:00:00 TS -21.9000 56.4000 main 91 84 _________O____ -1 -21.9000 56.4000 TC 4 229
1908043S14065 1908 10 SI MM NOT_NAMED 1908-02-19 03:00:00 TS -22.0075 56.2425 main 88 88 _________P____ -1 -22.0075 56.2425 TC 3 234
1908043S14065 1908 10 SI MM NOT_NAMED 1908-02-19 06:00:00 TS -22.1000 56.1000 main 93 88 _________O____ -1 -22.1000 56.1000 TC 3 229
1908043S14065 1908 10 SI MM NOT_NAMED 1908-02-19 09:00:00 TS -22.2000 56.0000 main 98 98 _________P____ -1 -22.2000 56.0000 TC 3 223
1908043S14065 1908 10 SI MM NOT_NAMED 1908-02-19 12:00:00 TS -22.3000 55.9000 main 105 102 _________O____ -1 -22.3000 55.9000 TC 3 230
1908043S14065 1908 10 SI MM NOT_NAMED 1908-02-19 15:00:00 TS -22.3925 55.7500 main 112 112 _________P____ -1 -22.3925 55.7500 TC 3 234
1908043S14065 1908 10 SI MM NOT_NAMED 1908-02-19 18:00:00 TS -22.5000 55.6000 main 122 122 _________O____ -1 -22.5000 55.6000 TC 3 223
1908043S14065 1908 10 SI MM NOT_NAMED 1908-02-19 21:00:00 TS -22.6349 55.5074 main 134 134 _________P____ -1 -22.6349 55.5074 TC 4 211
1908043S14065 1908 10 SI MM NOT_NAMED 1908-02-20 00:00:00 TS -22.8000 55.4000 main 157 157 _________O____ -1 -22.8000 55.4000 TC 4 216
1908043S14065 1908 10 SI MM NOT_NAMED 1908-02-20 03:00:00 TS -22.9925 55.2225 main 183 183 _________P____ -1 -22.9925 55.2225 TC 5 223
1908043S14065 1908 10 SI MM NOT_NAMED 1908-02-20 06:00:00 TS -23.2000 55.0000 main 210 210 _________O____ -1 -23.2000 55.0000 TC 6 227
1908043S14065 1908 10 SI MM NOT_NAMED 1908-02-20 09:00:00 TS -23.4000 54.7500 main 238 241 _________P____ -1 -23.4000 54.7500 TC 6 229
1908043S14065 1908 10 SI MM NOT_NAMED 1908-02-20 12:00:00 TS -23.6000 54.5000 main 269 269 _________O____ -1 -23.6000 54.5000 TC 6 227
1908043S14065 1908 10 SI MM NOT_NAMED 1908-02-20 15:00:00 TS -23.7924 54.2924 main 297 297 _________P____ -1 -23.7924 54.2924 TC 5 222
1908043S14065 1908 10 SI MM NOT_NAMED 1908-02-20 18:00:00 TS -24.0000 54.1000 main 325 325 _________O____ -1 -24.0000 54.1000 TC 6 218
1908043S14065 1908 10 SI MM NOT_NAMED 1908-02-20 21:00:00 TS -24.2500 53.9000 main 354 354 _________P____ -1 -24.2500 53.9000 TC 6 216
1908043S14065 1908 10 SI MM NOT_NAMED 1908-02-21 00:00:00 TS -24.5000 53.7000 main 393 393 _________O____ -1 -24.5000 53.7000 TC 6 218
1908043S14065 1908 10 SI MM NOT_NAMED 1908-02-21 03:00:00 TS -24.7150 53.4999 main 422 422 _________P____ -1 -24.7150 53.4999 TC 5 222
1908043S14065 1908 10 SI MM NOT_NAMED 1908-02-21 06:00:00 TS -24.9000 53.3000 main 451 451 _________O____ -1 -24.9000 53.3000 TC 5 227
1908043S14065 1908 10 SI MM NOT_NAMED 1908-02-21 09:00:00 TS -25.0500 53.0999 main 470 470 _________P____ -1 -25.0500 53.0999 TC 5 230
1908043S14065 1908 10 SI MM NOT_NAMED 1908-02-21 12:00:00 TS -25.2000 52.9000 main 500 500 _________O____ -1 -25.2000 52.9000 TC 5 227
1908043S14065 1908 10 SI MM NOT_NAMED 1908-02-21 15:00:00 TS -25.3925 52.7000 main 529 529 _________P____ -1 -25.3925 52.7000 TC 5 222
1908043S14065 1908 10 SI MM NOT_NAMED 1908-02-21 18:00:00 TS -25.6000 52.5000 main 535 519 _________O____ -1 -25.6000 52.5000 TC 6 224
1908043S14065 1908 10 SI MM NOT_NAMED 1908-02-21 21:00:00 TS -25.7925 52.2775 main 523 507 _________P____ -1 -25.7925 52.2775 TC 5 222
1908043S14065 1908 10 SI MM NOT_NAMED 1908-02-22 00:00:00 TS -26.0000 52.1000 main 510 504 _________O____ -1 -26.0000 52.1000 TC 5 207
1908043S14065 1908 10 SI MM NOT_NAMED 1908-02-22 03:00:00 TS -26.2425 52.0199 main 508 508 _________P____ -1 -26.2425 52.0199 TC 5 190
1908043S14065 1908 10 SI MM NOT_NAMED 1908-02-22 06:00:00 TS -26.5000 52.0000 main 518 518 _________O____ -1 -26.5000 52.0000 TC 5 185
1908043S14065 1908 10 SI MM NOT_NAMED 1908-02-22 09:00:00 TS -26.7500 51.9850 main 525 525 _________P____ -1 -26.7500 51.9850 TC 5 178
1908043S14065 1908 10 SI MM NOT_NAMED 1908-02-22 12:00:00 TS -27.0000 52.0000 main 537 537 _________O____ -1 -27.0000 52.0000 TC 5 175
1908043S14065 1908 10 SI MM NOT_NAMED 1908-02-22 15:00:00 TS -27.2500 52.0350 main 547 547 _________P____ -1 -27.2500 52.0350 TC 5 170
1908043S14065 1908 10 SI MM NOT_NAMED 1908-02-22 18:00:00 TS -27.5000 52.1000 main 571 571 _________O____ -1 -27.5000 52.1000 TC 5 165
1908043S14065 1908 10 SI MM NOT_NAMED 1908-02-22 21:00:00 TS -27.7500 52.1924 main 596 596 _________P____ -1 -27.7500 52.1924 TC 5 160
1908043S14065 1908 10 SI MM NOT_NAMED 1908-02-23 00:00:00 TS -28.0000 52.3000 main 615 _________O____ -1 -28.0000 52.3000 TC 5 159

About IBTrACS Database

This database is a web-friendly format of International Best Track Archive for Climate Stewardship (IBTrACS), a global best track data archive curated by NOAA dating back to 1842.

Updated: 2021-11-26